sensor_id;sensor_type;location;lat;lon;timestamp;pressure;altitude;pressure_sealevel;temperature;humidity
20228;BME280;12195;55.790;37.572;2023-04-03T00:01:56;99489.03;;;11.14;65.42
20228;BME280;12195;55.790;37.572;2023-04-03T00:04:38;99490.92;;;11.12;65.13
20228;BME280;12195;55.790;37.572;2023-04-03T00:07:10;99489.12;;;11.13;65.21
20228;BME280;12195;55.790;37.572;2023-04-03T00:09:43;99500.40;;;11.15;65.21
20228;BME280;12195;55.790;37.572;2023-04-03T00:12:15;99501.34;;;11.14;65.16
20228;BME280;12195;55.790;37.572;2023-04-03T00:14:47;99499.54;;;11.14;65.08
20228;BME280;12195;55.790;37.572;2023-04-03T00:17:19;99494.38;;;11.13;65.02
20228;BME280;12195;55.790;37.572;2023-04-03T00:19:51;99502.26;;;11.13;65.18
20228;BME280;12195;55.790;37.572;2023-04-03T00:22:24;99500.58;;;11.12;65.27
20228;BME280;12195;55.790;37.572;2023-04-03T00:24:57;99494.58;;;11.10;65.12
20228;BME280;12195;55.790;37.572;2023-04-03T00:27:30;99496.27;;;11.11;65.30
20228;BME280;12195;55.790;37.572;2023-04-03T00:30:03;99502.46;;;11.10;65.42
20228;BME280;12195;55.790;37.572;2023-04-03T00:32:35;99497.30;;;11.08;65.06
20228;BME280;12195;55.790;37.572;2023-04-03T00:35:08;99495.49;;;11.08;65.06
20228;BME280;12195;55.790;37.572;2023-04-03T00:37:41;99502.55;;;11.08;65.03
20228;BME280;12195;55.790;37.572;2023-04-03T00:40:15;99498.13;;;11.08;65.23
20228;BME280;12195;55.790;37.572;2023-04-03T00:42:53;99498.13;;;11.08;65.07
20228;BME280;12195;55.790;37.572;2023-04-03T00:45:35;99489.33;;;11.10;65.19
20228;BME280;12195;55.790;37.572;2023-04-03T00:48:05;99491.01;;;11.11;64.93
20228;BME280;12195;55.790;37.572;2023-04-03T00:50:40;99491.83;;;11.11;64.66
20228;BME280;12195;55.790;37.572;2023-04-03T00:53:19;99488.38;;;11.11;64.64
20228;BME280;12195;55.790;37.572;2023-04-03T00:55:54;99492.69;;;11.12;64.88
20228;BME280;12195;55.790;37.572;2023-04-03T00:58:32;99501.52;;;11.11;64.62
20228;BME280;12195;55.790;37.572;2023-04-03T01:01:05;99492.13;;;11.07;64.78
20228;BME280;12195;55.790;37.572;2023-04-03T01:03:37;99496.44;;;11.08;64.63
20228;BME280;12195;55.790;37.572;2023-04-03T01:06:09;99498.41;;;11.04;64.75
20228;BME280;12195;55.790;37.572;2023-04-03T01:08:42;99495.88;;;11.03;64.80
20228;BME280;12195;55.790;37.572;2023-04-03T01:11:14;99499.36;;;11.03;64.68
20228;BME280;12195;55.790;37.572;2023-04-03T01:13:47;99493.25;;;11.03;64.63
20228;BME280;12195;55.790;37.572;2023-04-03T01:16:20;99498.50;;;11.03;64.59
20228;BME280;12195;55.790;37.572;2023-04-03T01:18:52;99500.48;;;10.99;64.16
20228;BME280;12195;55.790;37.572;2023-04-03T01:24:22;99507.67;;;10.95;63.70
20228;BME280;12195;55.790;37.572;2023-04-03T01:26:52;99493.03;;;10.91;63.19
20228;BME280;12195;55.790;37.572;2023-04-03T01:29:24;99495.66;;;10.91;63.55
20228;BME280;12195;55.790;37.572;2023-04-03T01:31:59;99493.23;;;10.88;63.49
20228;BME280;12195;55.790;37.572;2023-04-03T01:34:32;99495.09;;;10.86;63.46
20228;BME280;12195;55.790;37.572;2023-04-03T01:37:05;99498.92;;;10.81;63.64
20228;BME280;12195;55.790;37.572;2023-04-03T01:39:37;99504.46;;;10.76;63.86
20228;BME280;12195;55.790;37.572;2023-04-03T01:42:09;99496.84;;;10.72;64.02
20228;BME280;12195;55.790;37.572;2023-04-03T01:44:43;99501.44;;;10.68;64.37
20228;BME280;12195;55.790;37.572;2023-04-03T01:47:16;99511.17;;;10.66;64.03
20228;BME280;12195;55.790;37.572;2023-04-03T01:49:48;99508.63;;;10.65;64.27
20228;BME280;12195;55.790;37.572;2023-04-03T01:52:20;99512.36;;;10.61;64.37
20228;BME280;12195;55.790;37.572;2023-04-03T01:54:53;99512.56;;;10.58;64.55
20228;BME280;12195;55.790;37.572;2023-04-03T01:57:25;99512.65;;;10.56;64.29
20228;BME280;12195;55.790;37.572;2023-04-03T01:59:57;99509.17;;;10.56;64.34
20228;BME280;12195;55.790;37.572;2023-04-03T02:02:30;99508.31;;;10.55;64.25
20228;BME280;12195;55.790;37.572;2023-04-03T02:05:03;99504.17;;;10.51;64.32
20228;BME280;12195;55.790;37.572;2023-04-03T02:07:35;99506.80;;;10.51;64.42
20228;BME280;12195;55.790;37.572;2023-04-03T02:10:07;99506.99;;;10.48;64.16
20228;BME280;12195;55.790;37.572;2023-04-03T02:12:39;99505.28;;;10.47;64.50
20228;BME280;12195;55.790;37.572;2023-04-03T02:15:11;99503.59;;;10.46;64.52
20228;BME280;12195;55.790;37.572;2023-04-03T02:17:44;99507.08;;;10.47;64.41
20228;BME280;12195;55.790;37.572;2023-04-03T02:20:16;99501.91;;;10.45;64.35
20228;BME280;12195;55.790;37.572;2023-04-03T02:22:49;99508.19;;;10.43;64.36
20228;BME280;12195;55.790;37.572;2023-04-03T02:25:21;99501.33;;;10.40;64.38
20228;BME280;12195;55.790;37.572;2023-04-03T02:27:53;99504.13;;;10.37;64.45
20228;BME280;12195;55.790;37.572;2023-04-03T02:30:26;99508.72;;;10.34;64.73
20228;BME280;12195;55.790;37.572;2023-04-03T02:32:58;99505.48;;;10.29;64.89
20228;BME280;12195;55.790;37.572;2023-04-03T02:35:31;99508.22;;;10.27;64.82
20228;BME280;12195;55.790;37.572;2023-04-03T02:38:03;99504.73;;;10.27;65.01
20228;BME280;12195;55.790;37.572;2023-04-03T02:40:36;99504.82;;;10.25;65.02
20228;BME280;12195;55.790;37.572;2023-04-03T02:43:08;99501.38;;;10.25;65.02
20228;BME280;12195;55.790;37.572;2023-04-03T02:45:41;99500.52;;;10.24;64.91
20228;BME280;12195;55.790;37.572;2023-04-03T02:48:13;99503.14;;;10.24;65.27
20228;BME280;12195;55.790;37.572;2023-04-03T02:50:47;99499.57;;;10.25;65.17
20228;BME280;12195;55.790;37.572;2023-04-03T02:53:20;99502.86;;;10.29;65.14
20228;BME280;12195;55.790;37.572;2023-04-03T02:55:52;99504.57;;;10.30;64.72
20228;BME280;12195;55.790;37.572;2023-04-03T02:58:24;99505.31;;;10.32;64.76
20228;BME280;12195;55.790;37.572;2023-04-03T03:00:57;99500.84;;;10.34;64.83
20228;BME280;12195;55.790;37.572;2023-04-03T03:03:29;99511.25;;;10.35;64.83
20228;BME280;12195;55.790;37.572;2023-04-03T03:06:07;99511.25;;;10.35;64.65
20228;BME280;12195;55.790;37.572;2023-04-03T03:08:37;99513.87;;;10.35;64.88
20228;BME280;12195;55.790;37.572;2023-04-03T03:11:09;99521.75;;;10.35;64.79
20228;BME280;12195;55.790;37.572;2023-04-03T03:13:41;99514.63;;;10.37;64.97
20228;BME280;12195;55.790;37.572;2023-04-03T03:16:14;99518.02;;;10.39;65.06
20228;BME280;12195;55.790;37.572;2023-04-03T03:18:46;99515.20;;;10.42;64.73
20228;BME280;12195;55.790;37.572;2023-04-03T03:21:18;99512.49;;;10.44;64.76
20228;BME280;12195;55.790;37.572;2023-04-03T03:23:51;99519.42;;;10.45;64.49
20228;BME280;12195;55.790;37.572;2023-04-03T03:26:23;99517.49;;;10.48;64.60
20228;BME280;12195;55.790;37.572;2023-04-03T03:28:56;99525.94;;;10.53;64.68
20228;BME280;12195;55.790;37.572;2023-04-03T03:31:28;99524.92;;;10.56;64.37
20228;BME280;12195;55.790;37.572;2023-04-03T03:34:01;99531.69;;;10.60;64.26
20228;BME280;12195;55.790;37.572;2023-04-03T03:36:33;99530.58;;;10.64;63.92
20228;BME280;12195;55.790;37.572;2023-04-03T03:39:06;99521.50;;;10.69;63.67
20228;BME280;12195;55.790;37.572;2023-04-03T03:41:38;99519.45;;;10.74;63.36
20228;BME280;12195;55.790;37.572;2023-04-03T03:44:10;99526.05;;;10.81;62.95
20228;BME280;12195;55.790;37.572;2023-04-03T03:46:45;99523.81;;;10.89;62.62
20228;BME280;12195;55.790;37.572;2023-04-03T03:49:17;99518.19;;;10.95;62.00
20228;BME280;12195;55.790;37.572;2023-04-03T03:51:50;99521.03;;;11.07;61.89
20228;BME280;12195;55.790;37.572;2023-04-03T03:54:23;99521.51;;;11.13;61.52
20228;BME280;12195;55.790;37.572;2023-04-03T03:56:55;99513.06;;;11.22;61.12
20228;BME280;12195;55.790;37.572;2023-04-03T03:59:27;99514.39;;;11.29;60.89
20228;BME280;12195;55.790;37.572;2023-04-03T04:02:00;99513.92;;;11.37;60.57
20228;BME280;12195;55.790;37.572;2023-04-03T04:04:32;99509.98;;;11.44;60.37
20228;BME280;12195;55.790;37.572;2023-04-03T04:07:04;99513.17;;;11.49;60.02
20228;BME280;12195;55.790;37.572;2023-04-03T04:09:37;99526.05;;;11.53;59.74
20228;BME280;12195;55.790;37.572;2023-04-03T04:12:11;99507.73;;;11.52;60.02
20228;BME280;12195;55.790;37.572;2023-04-03T04:14:43;99510.19;;;11.55;59.94
20228;BME280;12195;55.790;37.572;2023-04-03T04:17:18;99517.03;;;11.57;60.08
20228;BME280;12195;55.790;37.572;2023-04-03T04:19:52;99514.05;;;11.63;59.42
20228;BME280;12195;55.790;37.572;2023-04-03T04:22:25;99520.16;;;11.64;59.05
20228;BME280;12195;55.790;37.572;2023-04-03T04:24:57;99530.59;;;11.65;59.33
20228;BME280;12195;55.790;37.572;2023-04-03T04:27:30;99527.87;;;11.67;59.17
20228;BME280;12195;55.790;37.572;2023-04-03T04:30:04;99528.60;;;11.69;58.88
20228;BME280;12195;55.790;37.572;2023-04-03T04:32:37;99520.53;;;11.72;59.37
20228;BME280;12195;55.790;37.572;2023-04-03T04:35:09;99529.25;;;11.72;59.31
20228;BME280;12195;55.790;37.572;2023-04-03T04:37:45;99535.27;;;11.74;59.36
20228;BME280;12195;55.790;37.572;2023-04-03T04:40:17;99540.14;;;11.80;58.76
20228;BME280;12195;55.790;37.572;2023-04-03T04:42:49;99538.73;;;11.89;58.37
20228;BME280;12195;55.790;37.572;2023-04-03T04:45:22;99536.47;;;11.97;58.23
20228;BME280;12195;55.790;37.572;2023-04-03T04:47:57;99544.55;;;12.08;57.91
20228;BME280;12195;55.790;37.572;2023-04-03T04:50:30;99543.00;;;12.18;57.99
20228;BME280;12195;55.790;37.572;2023-04-03T04:53:02;99533.78;;;12.25;56.88
20228;BME280;12195;55.790;37.572;2023-04-03T04:55:35;99544.66;;;12.33;56.62
20228;BME280;12195;55.790;37.572;2023-04-03T04:58:08;99546.16;;;12.37;56.40
20228;BME280;12195;55.790;37.572;2023-04-03T05:00:41;99543.30;;;12.40;56.45
20228;BME280;12195;55.790;37.572;2023-04-03T05:03:13;99548.09;;;12.47;55.96
20228;BME280;12195;55.790;37.572;2023-04-03T05:05:46;99540.45;;;12.57;56.27
20228;BME280;12195;55.790;37.572;2023-04-03T05:08:18;99546.69;;;12.68;55.65
20228;BME280;12195;55.790;37.572;2023-04-03T05:10:50;99544.30;;;12.78;55.38
20228;BME280;12195;55.790;37.572;2023-04-03T05:13:27;99540.00;;;12.89;55.11
20228;BME280;12195;55.790;37.572;2023-04-03T05:15:59;99546.27;;;13.01;54.53
20228;BME280;12195;55.790;37.572;2023-04-03T05:18:32;99542.81;;;13.13;54.27
20228;BME280;12195;55.790;37.572;2023-04-03T05:21:05;99544.52;;;13.26;54.09
20228;BME280;12195;55.790;37.572;2023-04-03T05:23:38;99544.20;;;13.43;53.52
20228;BME280;12195;55.790;37.572;2023-04-03T05:26:11;99543.05;;;13.60;52.92
20228;BME280;12195;55.790;37.572;2023-04-03T05:28:44;99536.27;;;13.68;52.33
20228;BME280;12195;55.790;37.572;2023-04-03T05:31:17;99542.06;;;13.73;52.07
20228;BME280;12195;55.790;37.572;2023-04-03T05:33:53;99542.81;;;13.75;52.09
20228;BME280;12195;55.790;37.572;2023-04-03T05:36:25;99544.59;;;13.75;52.05
20228;BME280;12195;55.790;37.572;2023-04-03T05:38:59;99541.66;;;13.79;52.15
20228;BME280;12195;55.790;37.572;2023-04-03T05:41:31;99545.77;;;13.83;52.01
20228;BME280;12195;55.790;37.572;2023-04-03T05:44:03;99541.34;;;13.84;51.47
20228;BME280;12195;55.790;37.572;2023-04-03T05:46:36;99546.28;;;13.88;51.66
20228;BME280;12195;55.790;37.572;2023-04-03T05:49:09;99545.31;;;13.89;51.24
20228;BME280;12195;55.790;37.572;2023-04-03T05:51:42;99549.53;;;13.92;51.45
20228;BME280;12195;55.790;37.572;2023-04-03T05:54:23;99545.97;;;13.93;51.37
20228;BME280;12195;55.790;37.572;2023-04-03T05:56:57;99545.72;;;13.96;50.88
20228;BME280;12195;55.790;37.572;2023-04-03T05:59:30;99547.33;;;13.98;51.00
20228;BME280;12195;55.790;37.572;2023-04-03T06:02:02;99544.45;;;14.01;51.03
20228;BME280;12195;55.790;37.572;2023-04-03T06:04:34;99554.19;;;14.01;51.10
20228;BME280;12195;55.790;37.572;2023-04-03T06:07:12;99560.19;;;14.03;51.08
20228;BME280;12195;55.790;37.572;2023-04-03T06:09:45;99561.14;;;14.02;51.16
20228;BME280;12195;55.790;37.572;2023-04-03T06:12:19;99562.00;;;14.02;50.98
20228;BME280;12195;55.790;37.572;2023-04-03T06:14:51;99565.91;;;13.97;50.45
20228;BME280;12195;55.790;37.572;2023-04-03T06:17:24;99566.22;;;13.92;50.32
20228;BME280;12195;55.790;37.572;2023-04-03T06:19:58;99577.13;;;13.88;50.74
20228;BME280;12195;55.790;37.572;2023-04-03T06:22:30;99578.39;;;13.82;51.14
20228;BME280;12195;55.790;37.572;2023-04-03T06:25:03;99575.10;;;13.79;51.25
20228;BME280;12195;55.790;37.572;2023-04-03T06:27:36;99582.92;;;13.80;51.41
20228;BME280;12195;55.790;37.572;2023-04-03T06:30:08;99577.33;;;13.85;50.93
20228;BME280;12195;55.790;37.572;2023-04-03T06:32:40;99581.34;;;13.90;51.27
20228;BME280;12195;55.790;37.572;2023-04-03T06:35:13;99585.87;;;14.01;51.08
20228;BME280;12195;55.790;37.572;2023-04-03T06:37:46;99579.93;;;14.10;50.89
20228;BME280;12195;55.790;37.572;2023-04-03T06:40:23;99584.38;;;14.22;50.65
20228;BME280;12195;55.790;37.572;2023-04-03T06:42:57;99581.78;;;14.33;50.04
20228;BME280;12195;55.790;37.572;2023-04-03T06:45:29;99573.73;;;14.47;49.76
20228;BME280;12195;55.790;37.572;2023-04-03T06:48:02;99579.20;;;14.56;49.32
20228;BME280;12195;55.790;37.572;2023-04-03T06:50:34;99580.20;;;14.66;49.22
20228;BME280;12195;55.790;37.572;2023-04-03T06:53:06;99584.80;;;14.75;48.89
20228;BME280;12195;55.790;37.572;2023-04-03T06:55:39;99578.97;;;14.83;48.41
20228;BME280;12195;55.790;37.572;2023-04-03T06:58:11;99587.56;;;14.97;48.25
20228;BME280;12195;55.790;37.572;2023-04-03T07:00:43;99577.15;;;15.07;47.81
20228;BME280;12195;55.790;37.572;2023-04-03T07:03:16;99579.70;;;15.19;47.58
20228;BME280;12195;55.790;37.572;2023-04-03T07:05:48;99586.59;;;15.33;47.36
20228;BME280;12195;55.790;37.572;2023-04-03T07:08:20;99584.84;;;15.44;46.58
20228;BME280;12195;55.790;37.572;2023-04-03T07:10:54;99591.36;;;15.51;46.53
20228;BME280;12195;55.790;37.572;2023-04-03T07:13:26;99579.73;;;15.65;46.82
20228;BME280;12195;55.790;37.572;2023-04-03T07:15:58;99582.36;;;15.76;46.06
20228;BME280;12195;55.790;37.572;2023-04-03T07:18:32;99586.23;;;15.83;45.62
20228;BME280;12195;55.790;37.572;2023-04-03T07:21:05;99574.09;;;15.92;45.70
20228;BME280;12195;55.790;37.572;2023-04-03T07:23:37;99576.71;;;16.03;45.14
20228;BME280;12195;55.790;37.572;2023-04-03T07:26:10;99574.06;;;16.14;44.74
20228;BME280;12195;55.790;37.572;2023-04-03T07:28:42;99573.56;;;16.31;44.39
20228;BME280;12195;55.790;37.572;2023-04-03T07:31:16;99576.46;;;16.50;43.75
20228;BME280;12195;55.790;37.572;2023-04-03T07:33:49;99571.20;;;16.70;43.59
20228;BME280;12195;55.790;37.572;2023-04-03T07:36:23;99583.08;;;17.18;45.64
20228;BME280;12195;55.790;37.572;2023-04-03T07:38:56;99574.22;;;17.29;42.72
20228;BME280;12195;55.790;37.572;2023-04-03T07:41:29;99575.69;;;17.53;41.07
20228;BME280;12195;55.790;37.572;2023-04-03T07:44:01;99575.52;;;17.75;40.55
20228;BME280;12195;55.790;37.572;2023-04-03T07:46:33;99577.25;;;17.86;39.72
20228;BME280;12195;55.790;37.572;2023-04-03T07:49:06;99582.49;;;17.97;39.98
20228;BME280;12195;55.790;37.572;2023-04-03T07:51:39;99579.16;;;18.04;39.92
20228;BME280;12195;55.790;37.572;2023-04-03T07:54:11;99583.49;;;18.05;39.16
20228;BME280;12195;55.790;37.572;2023-04-03T07:56:43;99579.72;;;18.08;39.38
20228;BME280;12195;55.790;37.572;2023-04-03T07:59:16;99584.52;;;18.14;39.02
20228;BME280;12195;55.790;37.572;2023-04-03T08:01:48;99582.84;;;18.13;38.53
20228;BME280;12195;55.790;37.572;2023-04-03T08:04:20;99582.12;;;18.11;38.50
20228;BME280;12195;55.790;37.572;2023-04-03T08:06:52;99579.89;;;18.16;38.97
20228;BME280;12195;55.790;37.572;2023-04-03T08:09:25;99586.50;;;18.21;38.58
20228;BME280;12195;55.790;37.572;2023-04-03T08:11:58;99574.61;;;18.25;38.48
20228;BME280;12195;55.790;37.572;2023-04-03T08:14:32;99576.88;;;18.30;38.43
20228;BME280;12195;55.790;37.572;2023-04-03T08:17:06;99576.88;;;18.30;39.04
20228;BME280;12195;55.790;37.572;2023-04-03T08:19:40;99571.30;;;18.33;38.49
20228;BME280;12195;55.790;37.572;2023-04-03T08:22:12;99571.07;;;18.45;38.20
20228;BME280;12195;55.790;37.572;2023-04-03T08:24:44;99573.06;;;18.62;37.38
20228;BME280;12195;55.790;37.572;2023-04-03T08:27:18;99580.23;;;18.81;37.37
20228;BME280;12195;55.790;37.572;2023-04-03T08:29:50;99578.72;;;18.97;36.38
20228;BME280;12195;55.790;37.572;2023-04-03T08:32:23;99579.13;;;19.02;37.24
20228;BME280;12195;55.790;37.572;2023-04-03T08:34:55;99578.42;;;19.10;37.21
20228;BME280;12195;55.790;37.572;2023-04-03T08:37:28;99580.09;;;19.20;37.06
20228;BME280;12195;55.790;37.572;2023-04-03T08:40:00;99583.06;;;19.27;36.85
20228;BME280;12195;55.790;37.572;2023-04-03T08:42:40;99589.23;;;19.37;36.73
20228;BME280;12195;55.790;37.572;2023-04-03T08:45:15;99585.99;;;19.43;36.55
20228;BME280;12195;55.790;37.572;2023-04-03T08:48:04;99593.70;;;19.46;36.61
20228;BME280;12195;55.790;37.572;2023-04-03T08:50:40;99589.92;;;19.39;36.72
20228;BME280;12195;55.790;37.572;2023-04-03T08:53:14;99590.19;;;19.45;37.09
20228;BME280;12195;55.790;37.572;2023-04-03T08:55:49;99596.00;;;19.87;38.82
20228;BME280;12195;55.790;37.572;2023-04-03T08:58:36;99593.55;;;19.66;37.76
20228;BME280;12195;55.790;37.572;2023-04-03T09:01:14;99595.64;;;19.63;36.42
20228;BME280;12195;55.790;37.572;2023-04-03T09:03:39;99593.56;;;19.57;36.49
20228;BME280;12195;55.790;37.572;2023-04-03T09:06:26;99593.83;;;19.63;36.40
20228;BME280;12195;55.790;37.572;2023-04-03T09:11:56;99599.27;;;19.81;35.98
20228;BME280;12195;55.790;37.572;2023-04-03T09:14:30;99596.00;;;19.87;35.74
20228;BME280;12195;55.790;37.572;2023-04-03T09:17:09;99601.31;;;19.96;35.86
20228;BME280;12195;55.790;37.572;2023-04-03T09:19:54;99601.56;;;20.12;35.86
20228;BME280;12195;55.790;37.572;2023-04-03T09:22:24;99602.03;;;20.35;35.05
20228;BME280;12195;55.790;37.572;2023-04-03T09:27:39;99606.33;;;20.90;34.62
20228;BME280;12195;55.790;37.572;2023-04-03T09:30:21;99610.42;;;21.12;33.68
20228;BME280;12195;55.790;37.572;2023-04-03T09:32:49;99609.80;;;21.18;33.49
20228;BME280;12195;55.790;37.572;2023-04-03T09:35:30;99614.39;;;21.25;33.77
20228;BME280;12195;55.790;37.572;2023-04-03T09:40:48;99612.65;;;21.16;33.59
20228;BME280;12195;55.790;37.572;2023-04-03T09:43:29;99608.27;;;21.15;34.00
20228;BME280;12195;55.790;37.572;2023-04-03T09:46:21;99608.20;;;21.07;33.94
20228;BME280;12195;55.790;37.572;2023-04-03T09:49:01;99610.41;;;20.94;34.40
20228;BME280;12195;55.790;37.572;2023-04-03T09:51:31;99604.71;;;20.80;34.55
20228;BME280;12195;55.790;37.572;2023-04-03T09:54:31;99612.48;;;20.73;34.30
20228;BME280;12195;55.790;37.572;2023-04-03T09:57:11;99617.05;;;20.63;34.29
20228;BME280;12195;55.790;37.572;2023-04-03T10:00:01;99613.15;;;20.58;34.48
20228;BME280;12195;55.790;37.572;2023-04-03T10:02:34;99615.25;;;20.54;35.19
20228;BME280;12195;55.790;37.572;2023-04-03T10:05:27;99618.67;;;20.46;35.32
20228;BME280;12195;55.790;37.572;2023-04-03T10:08:15;99614.91;;;20.39;35.40
20228;BME280;12195;55.790;37.572;2023-04-03T10:10:48;99620.84;;;20.33;35.37
20228;BME280;12195;55.790;37.572;2023-04-03T10:13:21;99612.45;;;20.28;35.38
20228;BME280;12195;55.790;37.572;2023-04-03T10:16:06;99609.39;;;20.23;35.70
20228;BME280;12195;55.790;37.572;2023-04-03T10:18:46;99613.73;;;20.24;35.29
20228;BME280;12195;55.790;37.572;2023-04-03T10:24:09;99619.99;;;20.33;34.69
20228;BME280;12195;55.790;37.572;2023-04-03T10:29:43;99624.47;;;20.42;34.51
20228;BME280;12195;55.790;37.572;2023-04-03T10:35:00;99622.44;;;20.53;34.28
20228;BME280;12195;55.790;37.572;2023-04-03T10:51:53;99628.23;;;20.12;33.71
20228;BME280;12195;55.790;37.572;2023-04-03T10:54:34;99638.77;;;19.95;34.23
20228;BME280;12195;55.790;37.572;2023-04-03T10:57:11;99636.13;;;19.85;34.27
20228;BME280;12195;55.790;37.572;2023-04-03T10:59:59;99631.50;;;19.87;33.62
20228;BME280;12195;55.790;37.572;2023-04-03T11:02:40;99628.53;;;19.90;33.29
20228;BME280;12195;55.790;37.572;2023-04-03T11:05:32;99630.91;;;19.93;33.20
20228;BME280;12195;55.790;37.572;2023-04-03T11:08:08;99632.59;;;19.94;33.20
20228;BME280;12195;55.790;37.572;2023-04-03T11:10:44;99633.44;;;19.95;33.01
20228;BME280;12195;55.790;37.572;2023-04-03T11:13:28;99622.36;;;19.99;32.66
20228;BME280;12195;55.790;37.572;2023-04-03T11:16:01;99622.04;;;20.02;32.63
20228;BME280;12195;55.790;37.572;2023-04-03T11:18:46;99624.28;;;20.07;32.33
20228;BME280;12195;55.790;37.572;2023-04-03T11:21:20;99621.90;;;20.04;32.10
20228;BME280;12195;55.790;37.572;2023-04-03T11:23:53;99621.08;;;20.03;32.33
20228;BME280;12195;55.790;37.572;2023-04-03T11:26:30;99611.95;;;20.06;32.52
20228;BME280;12195;55.790;37.572;2023-04-03T11:29:06;99609.84;;;20.09;32.65
20228;BME280;12195;55.790;37.572;2023-04-03T11:32:01;99615.61;;;20.05;32.35
20228;BME280;12195;55.790;37.572;2023-04-03T11:34:34;99616.14;;;20.08;34.65
20228;BME280;12195;55.790;37.572;2023-04-03T11:37:34;99614.90;;;20.12;32.86
20228;BME280;12195;55.790;37.572;2023-04-03T11:40:24;99621.59;;;20.26;33.07
20228;BME280;12195;55.790;37.572;2023-04-03T11:53:49;99610.95;;;20.71;32.91
20228;BME280;12195;55.790;37.572;2023-04-03T12:01:58;99614.01;;;20.76;33.28
20228;BME280;12195;55.790;37.572;2023-04-03T12:04:30;99614.72;;;20.78;32.92
20228;BME280;12195;55.790;37.572;2023-04-03T12:07:15;99608.20;;;20.63;33.42
20228;BME280;12195;55.790;37.572;2023-04-03T12:12:37;99611.56;;;20.37;33.43
20228;BME280;12195;55.790;37.572;2023-04-03T12:17:53;99621.73;;;20.24;34.09
20228;BME280;12195;55.790;37.572;2023-04-03T12:20:52;99621.62;;;20.07;34.52
20228;BME280;12195;55.790;37.572;2023-04-03T12:23:25;99610.86;;;19.89;34.83
20228;BME280;12195;55.790;37.572;2023-04-03T12:26:20;99614.00;;;19.75;35.18
20228;BME280;12195;55.790;37.572;2023-04-03T12:28:55;99615.28;;;19.62;35.75
20228;BME280;12195;55.790;37.572;2023-04-03T12:31:33;99621.34;;;19.45;35.87
20228;BME280;12195;55.790;37.572;2023-04-03T12:37:15;99621.16;;;18.99;36.67
20228;BME280;12195;55.790;37.572;2023-04-03T12:42:55;99620.31;;;18.40;37.74
20228;BME280;12195;55.790;37.572;2023-04-03T12:45:24;99620.31;;;18.10;38.18
20228;BME280;12195;55.790;37.572;2023-04-03T12:47:56;99615.69;;;17.82;38.90
20228;BME280;12195;55.790;37.572;2023-04-03T12:50:31;99611.63;;;17.57;39.12
20228;BME280;12195;55.790;37.572;2023-04-03T12:53:16;99617.74;;;17.37;39.64
20228;BME280;12195;55.790;37.572;2023-04-03T12:55:45;99620.69;;;17.23;39.88
20228;BME280;12195;55.790;37.572;2023-04-03T12:58:25;99625.33;;;17.10;40.25
20228;BME280;12195;55.790;37.572;2023-04-03T13:03:43;99623.59;;;16.89;39.58
20228;BME280;12195;55.790;37.572;2023-04-03T13:06:31;99633.98;;;16.81;40.24
20228;BME280;12195;55.790;37.572;2023-04-03T13:09:02;99631.84;;;16.75;40.31
20228;BME280;12195;55.790;37.572;2023-04-03T13:11:37;99632.20;;;16.70;40.42
20228;BME280;12195;55.790;37.572;2023-04-03T13:14:19;99639.33;;;16.70;40.64
20228;BME280;12195;55.790;37.572;2023-04-03T13:17:18;99636.92;;;16.67;40.69
20228;BME280;12195;55.790;37.572;2023-04-03T13:19:45;99638.13;;;16.63;40.89
20228;BME280;12195;55.790;37.572;2023-04-03T13:22:26;99630.80;;;16.55;41.26
20228;BME280;12195;55.790;37.572;2023-04-03T13:25:01;99632.59;;;16.44;40.72
20228;BME280;12195;55.790;37.572;2023-04-03T13:27:33;99647.64;;;16.32;41.30
20228;BME280;12195;55.790;37.572;2023-04-03T13:30:17;99639.57;;;16.23;41.74
20228;BME280;12195;55.790;37.572;2023-04-03T13:32:42;99637.77;;;16.12;42.64
20228;BME280;12195;55.790;37.572;2023-04-03T13:38:04;99638.97;;;16.08;43.14
20228;BME280;12195;55.790;37.572;2023-04-03T13:40:46;99645.47;;;16.04;43.52
20228;BME280;12195;55.790;37.572;2023-04-03T13:43:30;99641.37;;;16.00;43.35
20228;BME280;12195;55.790;37.572;2023-04-03T13:48:45;99627.65;;;15.95;43.81
20228;BME280;12195;55.790;37.572;2023-04-03T13:51:26;99640.18;;;15.93;44.38
20228;BME280;12195;55.790;37.572;2023-04-03T13:54:00;99644.63;;;15.93;45.49
20228;BME280;12195;55.790;37.572;2023-04-03T13:56:35;99640.03;;;15.94;45.72
20228;BME280;12195;55.790;37.572;2023-04-03T14:01:55;99641.00;;;15.93;45.44
20228;BME280;12195;55.790;37.572;2023-04-03T14:04:32;99642.83;;;15.93;45.85
20228;BME280;12195;55.790;37.572;2023-04-03T14:07:05;99644.25;;;15.86;46.17
20228;BME280;12195;55.790;37.572;2023-04-03T14:09:37;99644.59;;;15.81;45.93
20228;BME280;12195;55.790;37.572;2023-04-03T14:12:36;99644.97;;;15.77;47.28
20228;BME280;12195;55.790;37.572;2023-04-03T14:14:47;99624.80;;;15.52;48.07
20228;BME280;12195;55.790;37.572;2023-04-03T14:17:22;99624.80;;;15.52;48.07
20228;BME280;12195;55.790;37.572;2023-04-03T14:19:57;99650.30;;;15.53;49.80
20228;BME280;12195;55.790;37.572;2023-04-03T14:22:32;99646.45;;;15.46;51.11
20228;BME280;12195;55.790;37.572;2023-04-03T14:25:05;99654.73;;;15.42;51.89
20228;BME280;12195;55.790;37.572;2023-04-03T14:27:41;99655.20;;;15.36;50.93
20228;BME280;12195;55.790;37.572;2023-04-03T14:30:22;99652.25;;;15.28;50.77
20228;BME280;12195;55.790;37.572;2023-04-03T14:32:55;99648.26;;;15.22;50.58
20228;BME280;12195;55.790;37.572;2023-04-03T14:35:28;99653.38;;;15.13;51.35
20228;BME280;12195;55.790;37.572;2023-04-03T14:38:00;99655.96;;;15.02;53.13
20228;BME280;12195;55.790;37.572;2023-04-03T14:40:32;99651.95;;;14.96;52.42
20228;BME280;12195;55.790;37.572;2023-04-03T14:43:08;99655.56;;;14.95;52.45